sensor_id;sensor_type;location;lat;lon;timestamp;P1;durP1;ratioP1;P2;durP2;ratioP2
62332;SDS011;48624;49.812;8.562;2023-02-12T00:01:46;28.30;;;16.98;;
62332;SDS011;48624;49.812;8.562;2023-02-12T00:04:12;36.75;;;18.13;;
62332;SDS011;48624;49.812;8.562;2023-02-12T00:06:37;26.58;;;16.60;;
62332;SDS011;48624;49.812;8.562;2023-02-12T00:09:04;30.27;;;18.38;;
62332;SDS011;48624;49.812;8.562;2023-02-12T00:11:29;35.53;;;19.17;;
62332;SDS011;48624;49.812;8.562;2023-02-12T00:13:57;30.25;;;18.60;;
62332;SDS011;48624;49.812;8.562;2023-02-12T00:16:24;31.90;;;16.67;;
62332;SDS011;48624;49.812;8.562;2023-02-12T00:18:52;32.97;;;17.45;;
62332;SDS011;48624;49.812;8.562;2023-02-12T00:21:18;28.13;;;15.70;;
62332;SDS011;48624;49.812;8.562;2023-02-12T00:23:44;32.53;;;16.40;;
62332;SDS011;48624;49.812;8.562;2023-02-12T00:26:11;30.75;;;14.98;;
62332;SDS011;48624;49.812;8.562;2023-02-12T00:28:38;29.63;;;15.70;;
62332;SDS011;48624;49.812;8.562;2023-02-12T00:31:08;29.05;;;16.63;;
62332;SDS011;48624;49.812;8.562;2023-02-12T00:33:39;33.08;;;18.85;;
62332;SDS011;48624;49.812;8.562;2023-02-12T00:36:05;29.90;;;16.30;;
62332;SDS011;48624;49.812;8.562;2023-02-12T00:38:31;31.95;;;18.20;;
62332;SDS011;48624;49.812;8.562;2023-02-12T00:40:57;31.50;;;16.40;;
62332;SDS011;48624;49.812;8.562;2023-02-12T00:43:22;29.63;;;17.05;;
62332;SDS011;48624;49.812;8.562;2023-02-12T00:45:47;24.70;;;16.02;;
62332;SDS011;48624;49.812;8.562;2023-02-12T00:48:13;27.03;;;15.60;;
62332;SDS011;48624;49.812;8.562;2023-02-12T00:50:39;27.55;;;15.93;;
62332;SDS011;48624;49.812;8.562;2023-02-12T00:53:05;32.10;;;17.00;;
62332;SDS011;48624;49.812;8.562;2023-02-12T00:55:31;25.80;;;15.60;;
62332;SDS011;48624;49.812;8.562;2023-02-12T00:57:57;26.88;;;15.68;;
62332;SDS011;48624;49.812;8.562;2023-02-12T01:00:22;25.73;;;16.13;;
62332;SDS011;48624;49.812;8.562;2023-02-12T01:02:48;34.90;;;16.75;;
62332;SDS011;48624;49.812;8.562;2023-02-12T01:05:13;30.25;;;17.80;;
62332;SDS011;48624;49.812;8.562;2023-02-12T01:07:39;32.35;;;17.90;;
62332;SDS011;48624;49.812;8.562;2023-02-12T01:10:05;27.70;;;16.35;;
62332;SDS011;48624;49.812;8.562;2023-02-12T01:12:31;29.55;;;16.17;;
62332;SDS011;48624;49.812;8.562;2023-02-12T01:14:56;30.58;;;16.35;;
62332;SDS011;48624;49.812;8.562;2023-02-12T01:17:23;29.08;;;16.25;;
62332;SDS011;48624;49.812;8.562;2023-02-12T01:19:49;28.63;;;15.73;;
62332;SDS011;48624;49.812;8.562;2023-02-12T01:22:15;27.65;;;16.05;;
62332;SDS011;48624;49.812;8.562;2023-02-12T01:24:40;27.80;;;15.93;;
62332;SDS011;48624;49.812;8.562;2023-02-12T01:27:06;32.47;;;16.23;;
62332;SDS011;48624;49.812;8.562;2023-02-12T01:29:31;32.20;;;17.77;;
62332;SDS011;48624;49.812;8.562;2023-02-12T01:31:56;32.60;;;17.98;;
62332;SDS011;48624;49.812;8.562;2023-02-12T01:34:21;29.98;;;16.10;;
62332;SDS011;48624;49.812;8.562;2023-02-12T01:36:47;34.80;;;19.75;;
62332;SDS011;48624;49.812;8.562;2023-02-12T01:39:12;28.77;;;17.02;;
62332;SDS011;48624;49.812;8.562;2023-02-12T01:41:39;35.05;;;17.33;;
62332;SDS011;48624;49.812;8.562;2023-02-12T01:44:17;29.65;;;19.00;;
62332;SDS011;48624;49.812;8.562;2023-02-12T01:46:45;30.30;;;18.15;;
62332;SDS011;48624;49.812;8.562;2023-02-12T01:49:16;35.92;;;20.20;;
62332;SDS011;48624;49.812;8.562;2023-02-12T01:51:45;32.03;;;18.15;;
62332;SDS011;48624;49.812;8.562;2023-02-12T01:54:14;29.77;;;18.80;;
62332;SDS011;48624;49.812;8.562;2023-02-12T01:56:42;33.83;;;18.60;;
62332;SDS011;48624;49.812;8.562;2023-02-12T01:59:08;34.45;;;19.60;;
62332;SDS011;48624;49.812;8.562;2023-02-12T02:01:34;33.63;;;18.03;;
62332;SDS011;48624;49.812;8.562;2023-02-12T02:04:05;29.88;;;16.95;;
62332;SDS011;48624;49.812;8.562;2023-02-12T02:06:35;28.48;;;17.80;;
62332;SDS011;48624;49.812;8.562;2023-02-12T02:09:08;29.77;;;18.35;;
62332;SDS011;48624;49.812;8.562;2023-02-12T02:11:33;31.17;;;18.17;;
62332;SDS011;48624;49.812;8.562;2023-02-12T02:14:17;33.33;;;18.75;;
62332;SDS011;48624;49.812;8.562;2023-02-12T02:37:00;31.63;;;16.40;;
62332;SDS011;48624;49.812;8.562;2023-02-12T02:45:40;27.38;;;15.80;;
62332;SDS011;48624;49.812;8.562;2023-02-12T02:48:26;27.85;;;16.63;;
62332;SDS011;48624;49.812;8.562;2023-02-12T02:50:59;26.02;;;14.90;;
62332;SDS011;48624;49.812;8.562;2023-02-12T02:53:48;24.17;;;14.70;;
62332;SDS011;48624;49.812;8.562;2023-02-12T02:56:20;26.98;;;15.45;;
62332;SDS011;48624;49.812;8.562;2023-02-12T02:59:00;29.35;;;15.82;;
62332;SDS011;48624;49.812;8.562;2023-02-12T03:01:30;28.25;;;17.10;;
62332;SDS011;48624;49.812;8.562;2023-02-12T03:04:05;30.67;;;16.55;;
62332;SDS011;48624;49.812;8.562;2023-02-12T03:06:42;30.02;;;17.30;;
62332;SDS011;48624;49.812;8.562;2023-02-12T03:09:15;28.27;;;16.55;;
62332;SDS011;48624;49.812;8.562;2023-02-12T03:11:45;28.55;;;16.92;;
62332;SDS011;48624;49.812;8.562;2023-02-12T03:17:12;32.08;;;17.38;;
62332;SDS011;48624;49.812;8.562;2023-02-12T03:19:52;28.60;;;15.57;;
62332;SDS011;48624;49.812;8.562;2023-02-12T03:22:27;30.95;;;17.48;;
62332;SDS011;48624;49.812;8.562;2023-02-12T03:25:02;29.25;;;16.65;;
62332;SDS011;48624;49.812;8.562;2023-02-12T03:27:37;28.70;;;17.60;;
62332;SDS011;48624;49.812;8.562;2023-02-12T03:30:05;32.15;;;17.77;;
62332;SDS011;48624;49.812;8.562;2023-02-12T03:32:39;32.83;;;17.27;;
62332;SDS011;48624;49.812;8.562;2023-02-12T03:35:32;22.48;;;15.23;;
62332;SDS011;48624;49.812;8.562;2023-02-12T03:38:27;28.90;;;16.70;;
62332;SDS011;48624;49.812;8.562;2023-02-12T03:41:23;27.63;;;14.60;;
62332;SDS011;48624;49.812;8.562;2023-02-12T03:44:05;25.58;;;14.63;;
62332;SDS011;48624;49.812;8.562;2023-02-12T03:46:41;31.33;;;16.88;;
62332;SDS011;48624;49.812;8.562;2023-02-12T03:49:14;28.60;;;15.32;;
62332;SDS011;48624;49.812;8.562;2023-02-12T03:51:47;31.70;;;16.55;;
62332;SDS011;48624;49.812;8.562;2023-02-12T03:54:14;27.15;;;16.17;;
62332;SDS011;48624;49.812;8.562;2023-02-12T03:56:53;26.55;;;16.20;;
62332;SDS011;48624;49.812;8.562;2023-02-12T03:59:23;26.80;;;15.57;;
62332;SDS011;48624;49.812;8.562;2023-02-12T04:01:51;27.80;;;16.60;;
62332;SDS011;48624;49.812;8.562;2023-02-12T04:04:17;28.00;;;17.27;;
62332;SDS011;48624;49.812;8.562;2023-02-12T04:06:44;27.35;;;15.43;;
62332;SDS011;48624;49.812;8.562;2023-02-12T04:09:11;30.05;;;16.33;;
62332;SDS011;48624;49.812;8.562;2023-02-12T04:11:43;27.65;;;15.35;;
62332;SDS011;48624;49.812;8.562;2023-02-12T04:17:21;27.13;;;15.50;;
62332;SDS011;48624;49.812;8.562;2023-02-12T04:28:15;30.40;;;17.35;;
62332;SDS011;48624;49.812;8.562;2023-02-12T04:30:43;28.52;;;17.25;;
62332;SDS011;48624;49.812;8.562;2023-02-12T04:33:14;26.35;;;16.20;;
62332;SDS011;48624;49.812;8.562;2023-02-12T04:38:39;27.50;;;16.50;;
62332;SDS011;48624;49.812;8.562;2023-02-12T04:41:12;32.20;;;17.75;;
62332;SDS011;48624;49.812;8.562;2023-02-12T04:43:37;30.60;;;18.45;;
62332;SDS011;48624;49.812;8.562;2023-02-12T04:46:05;30.60;;;19.27;;
62332;SDS011;48624;49.812;8.562;2023-02-12T04:48:32;32.00;;;19.77;;
62332;SDS011;48624;49.812;8.562;2023-02-12T04:50:58;32.03;;;19.35;;
62332;SDS011;48624;49.812;8.562;2023-02-12T04:53:24;34.25;;;18.83;;
62332;SDS011;48624;49.812;8.562;2023-02-12T04:55:50;29.50;;;16.88;;
62332;SDS011;48624;49.812;8.562;2023-02-12T04:58:16;32.22;;;18.55;;
62332;SDS011;48624;49.812;8.562;2023-02-12T05:00:41;32.40;;;18.10;;
62332;SDS011;48624;49.812;8.562;2023-02-12T05:03:09;33.72;;;19.13;;
62332;SDS011;48624;49.812;8.562;2023-02-12T05:05:35;28.83;;;16.58;;
62332;SDS011;48624;49.812;8.562;2023-02-12T05:08:00;31.38;;;18.15;;
62332;SDS011;48624;49.812;8.562;2023-02-12T05:10:25;30.33;;;16.75;;
62332;SDS011;48624;49.812;8.562;2023-02-12T05:12:51;28.20;;;17.58;;
62332;SDS011;48624;49.812;8.562;2023-02-12T05:15:17;32.58;;;17.73;;
62332;SDS011;48624;49.812;8.562;2023-02-12T05:17:43;35.85;;;19.90;;
62332;SDS011;48624;49.812;8.562;2023-02-12T05:20:09;33.80;;;17.90;;
62332;SDS011;48624;49.812;8.562;2023-02-12T05:22:36;32.28;;;18.15;;
62332;SDS011;48624;49.812;8.562;2023-02-12T05:25:02;32.97;;;17.40;;
62332;SDS011;48624;49.812;8.562;2023-02-12T05:27:28;30.33;;;17.90;;
62332;SDS011;48624;49.812;8.562;2023-02-12T05:29:53;29.05;;;17.40;;
62332;SDS011;48624;49.812;8.562;2023-02-12T05:32:18;29.42;;;17.20;;
62332;SDS011;48624;49.812;8.562;2023-02-12T05:34:43;34.35;;;18.60;;
62332;SDS011;48624;49.812;8.562;2023-02-12T05:37:09;31.85;;;17.15;;
62332;SDS011;48624;49.812;8.562;2023-02-12T05:39:34;32.75;;;17.75;;
62332;SDS011;48624;49.812;8.562;2023-02-12T05:41:59;25.02;;;15.52;;
62332;SDS011;48624;49.812;8.562;2023-02-12T05:44:24;27.90;;;16.30;;
62332;SDS011;48624;49.812;8.562;2023-02-12T05:46:50;31.27;;;16.92;;
62332;SDS011;48624;49.812;8.562;2023-02-12T05:49:15;35.30;;;17.92;;
62332;SDS011;48624;49.812;8.562;2023-02-12T05:51:40;31.73;;;17.70;;
62332;SDS011;48624;49.812;8.562;2023-02-12T05:54:06;28.35;;;14.95;;
62332;SDS011;48624;49.812;8.562;2023-02-12T05:56:34;31.92;;;16.67;;
62332;SDS011;48624;49.812;8.562;2023-02-12T05:59:02;29.58;;;16.75;;
62332;SDS011;48624;49.812;8.562;2023-02-12T06:01:40;27.75;;;16.42;;
62332;SDS011;48624;49.812;8.562;2023-02-12T06:04:08;26.83;;;16.25;;
62332;SDS011;48624;49.812;8.562;2023-02-12T06:06:39;30.75;;;16.60;;
62332;SDS011;48624;49.812;8.562;2023-02-12T06:09:08;29.67;;;16.35;;
62332;SDS011;48624;49.812;8.562;2023-02-12T06:11:34;29.35;;;15.75;;
62332;SDS011;48624;49.812;8.562;2023-02-12T06:14:01;31.65;;;16.25;;
62332;SDS011;48624;49.812;8.562;2023-02-12T06:16:30;27.77;;;16.20;;
62332;SDS011;48624;49.812;8.562;2023-02-12T06:18:57;33.42;;;17.45;;
62332;SDS011;48624;49.812;8.562;2023-02-12T06:21:25;27.10;;;16.30;;
62332;SDS011;48624;49.812;8.562;2023-02-12T06:23:51;30.45;;;16.70;;
62332;SDS011;48624;49.812;8.562;2023-02-12T06:26:17;32.08;;;17.48;;
62332;SDS011;48624;49.812;8.562;2023-02-12T06:28:43;31.55;;;16.58;;
62332;SDS011;48624;49.812;8.562;2023-02-12T06:31:42;33.63;;;18.58;;
62332;SDS011;48624;49.812;8.562;2023-02-12T06:34:04;38.83;;;19.27;;
62332;SDS011;48624;49.812;8.562;2023-02-12T06:36:32;29.50;;;18.17;;
62332;SDS011;48624;49.812;8.562;2023-02-12T06:39:01;36.83;;;19.00;;
62332;SDS011;48624;49.812;8.562;2023-02-12T06:41:26;34.33;;;19.38;;
62332;SDS011;48624;49.812;8.562;2023-02-12T06:43:52;35.80;;;20.20;;
62332;SDS011;48624;49.812;8.562;2023-02-12T06:46:18;37.80;;;20.17;;
62332;SDS011;48624;49.812;8.562;2023-02-12T06:48:44;39.70;;;20.80;;
62332;SDS011;48624;49.812;8.562;2023-02-12T06:51:14;39.20;;;20.35;;
62332;SDS011;48624;49.812;8.562;2023-02-12T06:53:41;40.65;;;21.38;;
62332;SDS011;48624;49.812;8.562;2023-02-12T06:56:07;46.78;;;22.58;;
62332;SDS011;48624;49.812;8.562;2023-02-12T06:58:35;41.47;;;22.08;;
62332;SDS011;48624;49.812;8.562;2023-02-12T07:01:12;35.40;;;19.73;;
62332;SDS011;48624;49.812;8.562;2023-02-12T07:03:41;35.42;;;20.00;;
62332;SDS011;48624;49.812;8.562;2023-02-12T07:06:07;38.58;;;21.02;;
62332;SDS011;48624;49.812;8.562;2023-02-12T07:08:33;32.78;;;20.52;;
62332;SDS011;48624;49.812;8.562;2023-02-12T07:10:59;35.65;;;20.98;;
62332;SDS011;48624;49.812;8.562;2023-02-12T07:13:24;40.65;;;20.75;;
62332;SDS011;48624;49.812;8.562;2023-02-12T07:15:49;38.40;;;19.25;;
62332;SDS011;48624;49.812;8.562;2023-02-12T07:18:14;37.40;;;19.75;;
62332;SDS011;48624;49.812;8.562;2023-02-12T07:20:40;36.13;;;20.42;;
62332;SDS011;48624;49.812;8.562;2023-02-12T07:23:05;42.58;;;22.33;;
62332;SDS011;48624;49.812;8.562;2023-02-12T07:25:31;38.03;;;21.35;;
62332;SDS011;48624;49.812;8.562;2023-02-12T07:27:56;41.05;;;21.77;;
62332;SDS011;48624;49.812;8.562;2023-02-12T07:30:22;38.28;;;20.77;;
62332;SDS011;48624;49.812;8.562;2023-02-12T07:32:47;37.58;;;20.48;;
62332;SDS011;48624;49.812;8.562;2023-02-12T07:35:12;34.13;;;19.98;;
62332;SDS011;48624;49.812;8.562;2023-02-12T07:37:38;38.45;;;19.77;;
62332;SDS011;48624;49.812;8.562;2023-02-12T07:40:03;38.75;;;21.15;;
62332;SDS011;48624;49.812;8.562;2023-02-12T07:42:30;36.70;;;19.63;;
62332;SDS011;48624;49.812;8.562;2023-02-12T07:44:55;38.20;;;21.40;;
62332;SDS011;48624;49.812;8.562;2023-02-12T07:47:20;39.83;;;20.77;;
62332;SDS011;48624;49.812;8.562;2023-02-12T07:49:46;42.97;;;21.63;;
62332;SDS011;48624;49.812;8.562;2023-02-12T07:52:12;40.33;;;22.25;;
62332;SDS011;48624;49.812;8.562;2023-02-12T07:54:38;38.35;;;21.00;;
62332;SDS011;48624;49.812;8.562;2023-02-12T07:57:03;43.73;;;21.17;;
62332;SDS011;48624;49.812;8.562;2023-02-12T07:59:28;39.55;;;20.92;;
62332;SDS011;48624;49.812;8.562;2023-02-12T08:01:54;36.92;;;18.83;;
62332;SDS011;48624;49.812;8.562;2023-02-12T08:04:21;33.75;;;19.38;;
62332;SDS011;48624;49.812;8.562;2023-02-12T08:06:48;35.20;;;19.53;;
62332;SDS011;48624;49.812;8.562;2023-02-12T08:09:19;33.15;;;19.27;;
62332;SDS011;48624;49.812;8.562;2023-02-12T08:11:48;31.95;;;18.77;;
62332;SDS011;48624;49.812;8.562;2023-02-12T08:14:14;32.83;;;18.65;;
62332;SDS011;48624;49.812;8.562;2023-02-12T08:16:42;37.78;;;19.60;;
62332;SDS011;48624;49.812;8.562;2023-02-12T08:19:09;35.75;;;21.33;;
62332;SDS011;48624;49.812;8.562;2023-02-12T08:21:36;38.25;;;21.55;;
62332;SDS011;48624;49.812;8.562;2023-02-12T08:24:03;39.80;;;22.45;;
62332;SDS011;48624;49.812;8.562;2023-02-12T08:26:31;36.30;;;21.17;;
62332;SDS011;48624;49.812;8.562;2023-02-12T08:28:59;44.20;;;23.48;;
62332;SDS011;48624;49.812;8.562;2023-02-12T08:31:27;42.20;;;23.17;;
62332;SDS011;48624;49.812;8.562;2023-02-12T08:33:54;45.58;;;23.50;;
62332;SDS011;48624;49.812;8.562;2023-02-12T08:36:21;46.22;;;24.25;;
62332;SDS011;48624;49.812;8.562;2023-02-12T08:38:48;45.88;;;23.73;;
62332;SDS011;48624;49.812;8.562;2023-02-12T08:41:15;48.35;;;23.70;;
62332;SDS011;48624;49.812;8.562;2023-02-12T08:43:43;42.85;;;24.58;;
62332;SDS011;48624;49.812;8.562;2023-02-12T08:48:36;39.10;;;23.05;;
62332;SDS011;48624;49.812;8.562;2023-02-12T08:51:07;47.35;;;24.27;;
62332;SDS011;48624;49.812;8.562;2023-02-12T08:53:36;46.88;;;23.90;;
62332;SDS011;48624;49.812;8.562;2023-02-12T08:56:03;42.63;;;24.25;;
62332;SDS011;48624;49.812;8.562;2023-02-12T08:58:28;47.30;;;24.90;;
62332;SDS011;48624;49.812;8.562;2023-02-12T09:00:54;41.40;;;23.77;;
62332;SDS011;48624;49.812;8.562;2023-02-12T09:03:19;46.42;;;24.17;;
62332;SDS011;48624;49.812;8.562;2023-02-12T09:05:44;40.63;;;23.40;;
62332;SDS011;48624;49.812;8.562;2023-02-12T09:08:10;49.30;;;25.15;;
62332;SDS011;48624;49.812;8.562;2023-02-12T09:10:38;42.67;;;22.45;;
62332;SDS011;48624;49.812;8.562;2023-02-12T09:13:06;41.60;;;23.75;;
62332;SDS011;48624;49.812;8.562;2023-02-12T09:15:41;46.50;;;23.63;;
62332;SDS011;48624;49.812;8.562;2023-02-12T09:18:09;42.85;;;23.48;;
62332;SDS011;48624;49.812;8.562;2023-02-12T09:20:37;45.85;;;24.52;;
62332;SDS011;48624;49.812;8.562;2023-02-12T09:23:04;43.67;;;23.77;;
62332;SDS011;48624;49.812;8.562;2023-02-12T09:25:30;43.92;;;23.92;;
62332;SDS011;48624;49.812;8.562;2023-02-12T09:27:58;44.55;;;24.27;;
62332;SDS011;48624;49.812;8.562;2023-02-12T09:30:24;43.70;;;21.55;;
62332;SDS011;48624;49.812;8.562;2023-02-12T09:32:49;57.53;;;30.58;;
62332;SDS011;48624;49.812;8.562;2023-02-12T09:35:15;51.92;;;27.50;;
62332;SDS011;48624;49.812;8.562;2023-02-12T09:37:40;53.63;;;27.65;;
62332;SDS011;48624;49.812;8.562;2023-02-12T09:40:10;47.58;;;23.95;;
62332;SDS011;48624;49.812;8.562;2023-02-12T09:45:36;51.97;;;25.13;;
62332;SDS011;48624;49.812;8.562;2023-02-12T09:53:20;47.67;;;21.83;;
62332;SDS011;48624;49.812;8.562;2023-02-12T09:55:49;41.58;;;21.95;;
62332;SDS011;48624;49.812;8.562;2023-02-12T09:58:23;43.70;;;19.77;;
62332;SDS011;48624;49.812;8.562;2023-02-12T10:00:57;41.47;;;19.42;;
62332;SDS011;48624;49.812;8.562;2023-02-12T10:03:23;46.95;;;20.65;;
62332;SDS011;48624;49.812;8.562;2023-02-12T10:05:54;44.35;;;21.58;;
62332;SDS011;48624;49.812;8.562;2023-02-12T10:08:31;44.63;;;21.52;;
62332;SDS011;48624;49.812;8.562;2023-02-12T10:19:51;43.55;;;21.90;;
62332;SDS011;48624;49.812;8.562;2023-02-12T10:22:32;38.17;;;19.70;;
62332;SDS011;48624;49.812;8.562;2023-02-12T10:25:17;42.38;;;21.20;;
62332;SDS011;48624;49.812;8.562;2023-02-12T10:27:49;42.75;;;20.20;;
62332;SDS011;48624;49.812;8.562;2023-02-12T10:33:28;41.63;;;19.92;;
62332;SDS011;48624;49.812;8.562;2023-02-12T10:36:24;40.60;;;20.60;;
62332;SDS011;48624;49.812;8.562;2023-02-12T10:38:57;45.35;;;22.83;;
62332;SDS011;48624;49.812;8.562;2023-02-12T10:41:54;42.13;;;20.98;;
62332;SDS011;48624;49.812;8.562;2023-02-12T10:44:25;41.17;;;22.08;;
62332;SDS011;48624;49.812;8.562;2023-02-12T10:46:52;40.95;;;20.55;;
62332;SDS011;48624;49.812;8.562;2023-02-12T10:49:18;44.08;;;21.67;;
62332;SDS011;48624;49.812;8.562;2023-02-12T10:51:54;39.50;;;20.20;;
62332;SDS011;48624;49.812;8.562;2023-02-12T10:54:31;45.65;;;22.38;;
62332;SDS011;48624;49.812;8.562;2023-02-12T10:57:05;37.03;;;19.35;;
62332;SDS011;48624;49.812;8.562;2023-02-12T10:59:50;38.05;;;20.85;;
62332;SDS011;48624;49.812;8.562;2023-02-12T11:02:29;41.10;;;22.15;;
62332;SDS011;48624;49.812;8.562;2023-02-12T11:04:57;37.67;;;19.48;;
62332;SDS011;48624;49.812;8.562;2023-02-12T11:07:24;39.13;;;18.90;;
62332;SDS011;48624;49.812;8.562;2023-02-12T11:09:52;38.15;;;19.15;;
62332;SDS011;48624;49.812;8.562;2023-02-12T11:12:35;38.33;;;21.00;;
62332;SDS011;48624;49.812;8.562;2023-02-12T11:15:16;36.83;;;20.80;;
62332;SDS011;48624;49.812;8.562;2023-02-12T11:17:45;46.15;;;20.42;;
62332;SDS011;48624;49.812;8.562;2023-02-12T11:20:28;40.53;;;19.60;;
62332;SDS011;48624;49.812;8.562;2023-02-12T11:22:58;34.53;;;18.58;;
62332;SDS011;48624;49.812;8.562;2023-02-12T11:25:26;43.40;;;19.92;;
62332;SDS011;48624;49.812;8.562;2023-02-12T11:33:39;37.40;;;21.02;;
62332;SDS011;48624;49.812;8.562;2023-02-12T11:36:10;38.22;;;19.50;;
62332;SDS011;48624;49.812;8.562;2023-02-12T11:38:53;42.22;;;20.48;;
62332;SDS011;48624;49.812;8.562;2023-02-12T11:44:09;33.92;;;19.48;;
62332;SDS011;48624;49.812;8.562;2023-02-12T11:46:36;32.17;;;17.70;;
62332;SDS011;48624;49.812;8.562;2023-02-12T11:49:04;37.80;;;20.23;;
62332;SDS011;48624;49.812;8.562;2023-02-12T11:51:33;34.95;;;17.58;;
62332;SDS011;48624;49.812;8.562;2023-02-12T11:54:02;32.35;;;16.65;;
62332;SDS011;48624;49.812;8.562;2023-02-12T11:56:42;29.13;;;16.90;;
62332;SDS011;48624;49.812;8.562;2023-02-12T12:04:52;28.42;;;15.57;;
62332;SDS011;48624;49.812;8.562;2023-02-12T12:07:21;32.63;;;16.15;;
62332;SDS011;48624;49.812;8.562;2023-02-12T12:09:57;31.25;;;17.73;;
62332;SDS011;48624;49.812;8.562;2023-02-12T12:13:13;28.52;;;16.10;;
62332;SDS011;48624;49.812;8.562;2023-02-12T12:15:21;31.92;;;16.00;;
62332;SDS011;48624;49.812;8.562;2023-02-12T12:18:20;32.00;;;15.70;;
62332;SDS011;48624;49.812;8.562;2023-02-12T12:23:50;30.38;;;14.30;;
62332;SDS011;48624;49.812;8.562;2023-02-12T12:26:24;27.95;;;14.63;;
62332;SDS011;48624;49.812;8.562;2023-02-12T12:31:32;29.48;;;15.35;;
62332;SDS011;48624;49.812;8.562;2023-02-12T12:36:53;24.85;;;12.98;;
62332;SDS011;48624;49.812;8.562;2023-02-12T12:39:45;25.48;;;14.25;;
62332;SDS011;48624;49.812;8.562;2023-02-12T12:42:45;22.15;;;14.57;;
62332;SDS011;48624;49.812;8.562;2023-02-12T12:50:55;18.33;;;9.98;;
62332;SDS011;48624;49.812;8.562;2023-02-12T12:56:41;22.75;;;10.30;;
62332;SDS011;48624;49.812;8.562;2023-02-12T12:59:30;19.83;;;10.20;;
62332;SDS011;48624;49.812;8.562;2023-02-12T13:02:29;17.70;;;10.25;;
62332;SDS011;48624;49.812;8.562;2023-02-12T13:10:43;20.20;;;10.43;;
62332;SDS011;48624;49.812;8.562;2023-02-12T13:13:31;20.48;;;10.75;;
62332;SDS011;48624;49.812;8.562;2023-02-12T13:16:08;19.88;;;10.05;;
62332;SDS011;48624;49.812;8.562;2023-02-12T13:21:28;19.52;;;10.73;;
62332;SDS011;48624;49.812;8.562;2023-02-12T13:24:13;25.38;;;15.20;;
62332;SDS011;48624;49.812;8.562;2023-02-12T13:26:55;27.25;;;13.32;;
62332;SDS011;48624;49.812;8.562;2023-02-12T13:29:34;26.27;;;13.32;;
62332;SDS011;48624;49.812;8.562;2023-02-12T13:32:13;27.00;;;14.23;;
62332;SDS011;48624;49.812;8.562;2023-02-12T13:34:46;22.60;;;13.68;;
62332;SDS011;48624;49.812;8.562;2023-02-12T13:37:46;24.48;;;13.25;;
62332;SDS011;48624;49.812;8.562;2023-02-12T13:40:14;19.85;;;11.82;;
62332;SDS011;48624;49.812;8.562;2023-02-12T13:51:25;25.10;;;12.68;;
62332;SDS011;48624;49.812;8.562;2023-02-12T13:54:14;24.63;;;14.07;;
62332;SDS011;48624;49.812;8.562;2023-02-12T14:01:57;22.75;;;13.43;;
62332;SDS011;48624;49.812;8.562;2023-02-12T14:04:26;21.20;;;11.13;;
62332;SDS011;48624;49.812;8.562;2023-02-12T14:10:17;20.02;;;13.30;;
62332;SDS011;48624;49.812;8.562;2023-02-12T14:12:35;23.80;;;13.73;;
62332;SDS011;48624;49.812;8.562;2023-02-12T14:24:59;19.13;;;11.18;;
62332;SDS011;48624;49.812;8.562;2023-02-12T14:27:28;20.77;;;13.25;;
62332;SDS011;48624;49.812;8.562;2023-02-12T14:33:08;22.30;;;14.43;;
62332;SDS011;48624;49.812;8.562;2023-02-12T14:35:42;20.67;;;13.25;;
62332;SDS011;48624;49.812;8.562;2023-02-12T14:40:39;25.52;;;13.88;;
62332;SDS011;48624;49.812;8.562;2023-02-12T14:51:27;17.92;;;11.55;;
62332;SDS011;48624;49.812;8.562;2023-02-12T14:53:55;21.42;;;11.57;;
62332;SDS011;48624;49.812;8.562;2023-02-12T14:56:22;21.50;;;11.98;;
62332;SDS011;48624;49.812;8.562;2023-02-12T14:58:49;18.23;;;11.23;;
62332;SDS011;48624;49.812;8.562;2023-02-12T15:01:25;21.40;;;11.77;;
62332;SDS011;48624;49.812;8.562;2023-02-12T15:03:56;20.10;;;12.02;;
62332;SDS011;48624;49.812;8.562;2023-02-12T15:06:26;18.65;;;9.93;;
62332;SDS011;48624;49.812;8.562;2023-02-12T15:09:09;18.15;;;9.98;;
62332;SDS011;48624;49.812;8.562;2023-02-12T15:11:42;18.55;;;10.60;;
62332;SDS011;48624;49.812;8.562;2023-02-12T15:16:44;20.02;;;11.98;;
62332;SDS011;48624;49.812;8.562;2023-02-12T15:22:18;22.80;;;11.85;;
62332;SDS011;48624;49.812;8.562;2023-02-12T15:24:46;21.42;;;12.15;;
62332;SDS011;48624;49.812;8.562;2023-02-12T15:27:14;21.92;;;13.20;;
62332;SDS011;48624;49.812;8.562;2023-02-12T15:29:45;23.55;;;14.07;;
62332;SDS011;48624;49.812;8.562;2023-02-12T15:32:23;19.42;;;12.30;;
62332;SDS011;48624;49.812;8.562;2023-02-12T15:34:51;23.13;;;12.77;;
62332;SDS011;48624;49.812;8.562;2023-02-12T15:37:24;25.67;;;13.45;;
62332;SDS011;48624;49.812;8.562;2023-02-12T15:39:52;21.15;;;13.85;;
62332;SDS011;48624;49.812;8.562;2023-02-12T15:42:30;23.10;;;13.77;;
62332;SDS011;48624;49.812;8.562;2023-02-12T15:47:39;22.73;;;12.27;;
62332;SDS011;48624;49.812;8.562;2023-02-12T15:50:06;23.02;;;13.15;;
62332;SDS011;48624;49.812;8.562;2023-02-12T15:52:40;23.92;;;14.77;;
62332;SDS011;48624;49.812;8.562;2023-02-12T15:55:13;23.85;;;12.60;;
62332;SDS011;48624;49.812;8.562;2023-02-12T15:57:42;23.67;;;14.05;;
62332;SDS011;48624;49.812;8.562;2023-02-12T16:00:20;23.58;;;14.27;;
62332;SDS011;48624;49.812;8.562;2023-02-12T16:03:17;28.85;;;16.10;;
62332;SDS011;48624;49.812;8.562;2023-02-12T16:05:45;23.80;;;15.63;;
62332;SDS011;48624;49.812;8.562;2023-02-12T16:08:15;28.73;;;16.35;;
62332;SDS011;48624;49.812;8.562;2023-02-12T16:10:43;27.77;;;16.20;;
62332;SDS011;48624;49.812;8.562;2023-02-12T16:13:20;25.60;;;15.35;;
62332;SDS011;48624;49.812;8.562;2023-02-12T16:19:05;24.75;;;15.23;;
62332;SDS011;48624;49.812;8.562;2023-02-12T16:21:45;26.98;;;15.70;;
62332;SDS011;48624;49.812;8.562;2023-02-12T16:24:47;29.55;;;15.68;;
62332;SDS011;48624;49.812;8.562;2023-02-12T16:27:16;25.90;;;14.32;;
62332;SDS011;48624;49.812;8.562;2023-02-12T16:29:44;29.10;;;15.30;;
62332;SDS011;48624;49.812;8.562;2023-02-12T16:34:57;26.50;;;14.38;;
62332;SDS011;48624;49.812;8.562;2023-02-12T16:37:49;25.90;;;13.00;;
62332;SDS011;48624;49.812;8.562;2023-02-12T16:47:52;26.85;;;14.63;;
62332;SDS011;48624;49.812;8.562;2023-02-12T16:50:19;31.05;;;15.07;;
62332;SDS011;48624;49.812;8.562;2023-02-12T16:52:51;24.45;;;13.43;;
62332;SDS011;48624;49.812;8.562;2023-02-12T16:55:24;26.17;;;13.88;;
62332;SDS011;48624;49.812;8.562;2023-02-12T16:57:49;20.10;;;12.55;;
62332;SDS011;48624;49.812;8.562;2023-02-12T17:00:15;23.13;;;13.43;;
62332;SDS011;48624;49.812;8.562;2023-02-12T17:02:41;23.38;;;13.57;;
62332;SDS011;48624;49.812;8.562;2023-02-12T17:05:06;23.98;;;13.00;;
62332;SDS011;48624;49.812;8.562;2023-02-12T17:07:33;24.52;;;14.35;;
62332;SDS011;48624;49.812;8.562;2023-02-12T17:09:59;23.45;;;11.30;;
62332;SDS011;48624;49.812;8.562;2023-02-12T17:12:24;21.83;;;11.85;;
62332;SDS011;48624;49.812;8.562;2023-02-12T17:14:50;24.63;;;11.82;;
62332;SDS011;48624;49.812;8.562;2023-02-12T17:17:16;27.60;;;12.20;;
62332;SDS011;48624;49.812;8.562;2023-02-12T17:19:41;19.77;;;11.13;;
62332;SDS011;48624;49.812;8.562;2023-02-12T17:22:07;25.45;;;11.63;;
62332;SDS011;48624;49.812;8.562;2023-02-12T17:24:42;25.27;;;13.75;;
62332;SDS011;48624;49.812;8.562;2023-02-12T17:27:07;23.20;;;12.05;;
62332;SDS011;48624;49.812;8.562;2023-02-12T17:29:35;22.05;;;12.45;;